createdAt,value
2023-10-29T00:00:09.502Z,12.57
2023-10-29T00:01:14.073Z,12.62
2023-10-29T00:02:16.446Z,12.62
2023-10-29T00:03:19.565Z,12.64
2023-10-29T00:04:22.841Z,12.66
2023-10-29T00:05:26.209Z,12.72
2023-10-29T00:06:28.025Z,12.78
2023-10-29T00:07:30.896Z,12.83
2023-10-29T00:08:32.757Z,12.88
2023-10-29T00:09:36.131Z,12.92
2023-10-29T00:10:38.224Z,13.00
2023-10-29T00:11:41.045Z,13.06
2023-10-29T00:12:42.996Z,13.12
2023-10-29T00:13:45.783Z,13.14
2023-10-29T00:14:48.360Z,13.16
2023-10-29T00:15:51.762Z,13.21
2023-10-29T00:16:53.853Z,13.25
2023-10-29T00:17:56.868Z,13.28
2023-10-29T00:18:58.937Z,13.31
2023-10-29T00:20:07.271Z,13.33
2023-10-29T00:21:09.345Z,13.35
2023-10-29T00:22:12.822Z,13.39
2023-10-29T00:23:14.876Z,13.44
2023-10-29T00:24:18.398Z,13.47
2023-10-29T00:25:20.221Z,13.50
2023-10-29T00:26:23.037Z,13.51
2023-10-29T00:27:25.538Z,13.55
2023-10-29T00:28:28.841Z,13.56
2023-10-29T00:29:30.774Z,13.58
2023-10-29T00:30:34.408Z,13.60
2023-10-29T00:31:36.406Z,13.63
2023-10-29T00:32:39.469Z,13.63
2023-10-29T00:33:41.362Z,13.66
2023-10-29T00:34:44.571Z,13.70
2023-10-29T00:35:47.828Z,13.72
2023-10-29T00:36:50.642Z,13.75
2023-10-29T00:37:52.700Z,13.78
2023-10-29T00:38:56.231Z,13.77
2023-10-29T00:39:58.041Z,13.77
2023-10-29T00:41:00.148Z,13.77
2023-10-29T00:42:03.324Z,13.77
2023-10-29T00:43:05.391Z,13.77
2023-10-29T00:44:08.484Z,13.81
2023-10-29T00:45:10.769Z,13.83
2023-10-29T00:46:16.034Z,13.82
2023-10-29T00:47:18.459Z,13.81
2023-10-29T00:48:21.384Z,13.83
2023-10-29T00:49:23.379Z,13.87
2023-10-29T00:50:26.706Z,13.88
2023-10-29T00:51:30.425Z,13.88
2023-10-29T00:52:32.799Z,13.88
2023-10-29T00:53:36.058Z,13.82
2023-10-29T00:54:38.178Z,13.79
2023-10-29T00:55:42.519Z,13.81
2023-10-29T00:56:44.601Z,13.81
2023-10-29T00:57:46.676Z,13.85
2023-10-29T00:58:49.552Z,13.87
2023-10-29T00:59:52.202Z,13.84
2023-10-29T01:00:55.821Z,13.84
2023-10-29T01:01:58.098Z,13.83
2023-10-29T01:03:01.083Z,13.82
2023-10-29T01:04:04.146Z,13.82
2023-10-29T01:05:08.756Z,13.83
2023-10-29T01:06:11.793Z,13.80
2023-10-29T01:07:16.138Z,13.83
2023-10-29T01:08:18.682Z,13.81
2023-10-29T01:09:22.004Z,13.81
2023-10-29T01:10:24.797Z,13.79
2023-10-29T01:11:27.773Z,13.80
2023-10-29T01:12:29.652Z,13.76
2023-10-29T01:13:31.525Z,13.73
2023-10-29T01:14:34.856Z,13.71
2023-10-29T01:15:37.122Z,13.73
2023-10-29T01:16:40.340Z,13.71
2023-10-29T01:17:42.718Z,13.73
2023-10-29T01:18:45.541Z,13.74
2023-10-29T01:19:47.393Z,13.74
2023-10-29T01:20:50.306Z,13.71
2023-10-29T01:21:52.241Z,13.68
2023-10-29T01:22:58.325Z,13.67
2023-10-29T01:24:03.349Z,13.67
2023-10-29T01:25:10.716Z,13.68
2023-10-29T01:26:12.554Z,13.65
2023-10-29T01:27:17.473Z,13.63
2023-10-29T01:28:19.309Z,13.60
2023-10-29T01:29:22.391Z,13.63
2023-10-29T01:30:25.324Z,13.66
2023-10-29T01:31:28.127Z,13.67
2023-10-29T01:32:30.421Z,13.67
2023-10-29T01:33:33.518Z,13.71
2023-10-29T01:34:35.380Z,13.74
2023-10-29T01:35:38.999Z,13.78
2023-10-29T01:36:40.927Z,13.78
2023-10-29T01:37:43.735Z,13.77
2023-10-29T01:38:47.028Z,13.77
2023-10-29T01:39:50.040Z,13.73
2023-10-29T01:40:51.819Z,13.75
2023-10-29T01:41:57.161Z,13.77
2023-10-29T01:42:59.027Z,13.80
2023-10-29T01:44:01.870Z,13.84
2023-10-29T01:45:05.362Z,13.85
2023-10-29T01:46:08.224Z,13.88
2023-10-29T01:47:10.080Z,13.93
2023-10-29T01:48:12.055Z,13.93
2023-10-29T01:49:14.940Z,13.97
2023-10-29T01:50:16.861Z,13.98
2023-10-29T01:51:19.666Z,14.01
2023-10-29T01:52:21.506Z,14.02
2023-10-29T01:53:24.520Z,14.03
2023-10-29T01:54:28.637Z,14.06
2023-10-29T01:55:31.487Z,14.08
2023-10-29T01:56:34.044Z,14.10
2023-10-29T01:57:37.538Z,14.20
2023-10-29T01:58:39.897Z,14.21
2023-10-29T01:59:42.781Z,14.28
2023-10-29T02:00:45.518Z,14.32
2023-10-29T02:01:48.312Z,14.34
2023-10-29T02:02:51.530Z,14.38
2023-10-29T02:03:54.426Z,14.38
2023-10-29T02:04:56.280Z,14.40
2023-10-29T02:06:00.100Z,14.44
2023-10-29T02:07:02.010Z,14.44
2023-10-29T02:08:04.959Z,14.44
2023-10-29T02:09:07.510Z,14.47
2023-10-29T02:10:11.939Z,14.47
2023-10-29T02:11:13.810Z,14.50
2023-10-29T02:12:17.013Z,14.50
2023-10-29T02:13:18.895Z,14.51
2023-10-29T02:14:21.925Z,14.52
2023-10-29T02:15:23.765Z,14.50
2023-10-29T02:16:26.613Z,14.51
2023-10-29T02:17:29.339Z,14.47
2023-10-29T02:18:32.382Z,14.48
2023-10-29T02:19:34.304Z,14.44
2023-10-29T02:20:37.115Z,14.44
2023-10-29T07:58:53.085Z,13.79
2023-10-29T07:59:55.203Z,13.83
2023-10-29T08:00:57.993Z,13.85
2023-10-29T08:01:59.914Z,13.87
2023-10-29T08:03:02.789Z,13.89
2023-10-29T08:04:04.806Z,13.93
2023-10-29T08:05:08.239Z,13.98
2023-10-29T08:06:10.463Z,14.00
2023-10-29T08:07:13.240Z,13.99
2023-10-29T08:08:15.009Z,14.01
2023-10-29T08:09:18.094Z,14.04
2023-10-29T08:10:20.313Z,14.05
2023-10-29T08:11:24.102Z,14.07
2023-10-29T08:12:26.574Z,14.07
2023-10-29T08:13:28.519Z,14.08
2023-10-29T08:14:32.876Z,14.13
2023-10-29T08:15:34.653Z,14.17
2023-10-29T08:16:37.411Z,14.20
2023-10-29T08:17:40.924Z,14.21
2023-10-29T08:18:44.045Z,14.23
2023-10-29T08:19:46.365Z,14.26
2023-10-29T08:20:50.167Z,14.27
2023-10-29T08:21:52.058Z,14.27
2023-10-29T08:22:54.859Z,14.24
2023-10-29T08:23:56.701Z,14.23
2023-10-29T08:25:00.465Z,14.26
2023-10-29T08:26:02.395Z,14.27
2023-10-29T08:27:07.337Z,14.27
2023-10-29T08:28:09.510Z,14.26
2023-10-29T08:29:13.266Z,14.30
2023-10-29T08:30:16.508Z,14.22
2023-10-29T08:31:18.354Z,14.19
2023-10-29T08:32:21.411Z,14.20
2023-10-29T08:33:23.503Z,14.19
2023-10-29T08:34:26.464Z,14.19
2023-10-29T08:35:28.352Z,14.20
2023-10-29T08:36:31.159Z,14.20
2023-10-29T08:37:33.771Z,14.21
2023-10-29T08:38:38.108Z,14.22
2023-10-29T08:39:40.043Z,14.26
2023-10-29T08:40:42.810Z,14.27
2023-10-29T08:41:44.791Z,14.28
2023-10-29T08:42:47.768Z,14.32
2023-10-29T08:43:49.801Z,14.32
2023-10-29T08:44:57.476Z,14.35
2023-10-29T08:46:00.777Z,14.33
2023-10-29T08:47:02.703Z,14.37
2023-10-29T08:48:06.085Z,14.37
2023-10-29T08:49:08.124Z,14.40
2023-10-29T08:50:11.101Z,14.41
2023-10-29T08:51:15.682Z,14.44
2023-10-29T08:52:18.714Z,14.48
2023-10-29T08:53:20.562Z,14.49
2023-10-29T08:54:24.732Z,14.52
2023-10-29T08:55:27.503Z,14.53
2023-10-29T08:56:30.324Z,14.55
2023-10-29T08:57:32.284Z,14.52
2023-10-29T08:58:35.112Z,14.57
2023-10-29T08:59:36.983Z,14.61
2023-10-29T09:00:46.491Z,14.64
2023-10-29T09:01:50.265Z,14.65
2023-10-29T09:02:53.814Z,14.63
2023-10-29T09:03:56.823Z,14.64
2023-10-29T09:04:59.960Z,14.70
2023-10-29T09:06:02.815Z,14.72
2023-10-29T09:07:05.572Z,14.70
2023-10-29T09:08:08.517Z,14.73
2023-10-29T09:09:10.503Z,14.69
2023-10-29T09:10:13.394Z,14.70
2023-10-29T09:11:15.794Z,14.70
2023-10-29T09:12:17.654Z,14.68
2023-10-29T09:13:23.834Z,14.68
2023-10-29T09:14:26.132Z,14.69
2023-10-29T09:15:28.949Z,14.71
2023-10-29T09:16:30.756Z,14.65
2023-10-29T09:17:34.874Z,14.62
2023-10-29T09:18:37.124Z,14.65
2023-10-29T09:19:39.939Z,14.66
2023-10-29T09:20:42.074Z,14.68
2023-10-29T09:21:47.125Z,14.66
2023-10-29T09:22:48.922Z,14.66
2023-10-29T09:23:51.766Z,14.65
2023-10-29T09:24:53.656Z,14.68
2023-10-29T09:25:56.465Z,14.64
2023-10-29T09:26:58.376Z,14.59
2023-10-29T09:28:01.176Z,14.55
2023-10-29T09:29:03.786Z,14.47
2023-10-29T09:30:07.859Z,14.44
2023-10-29T09:31:14.758Z,14.42
2023-10-29T09:32:17.641Z,14.46
2023-10-29T09:33:21.185Z,14.41
2023-10-29T09:34:24.063Z,14.42
2023-10-29T09:35:25.985Z,14.40
2023-10-29T09:36:28.844Z,14.47
2023-10-29T09:37:32.930Z,14.51
2023-10-29T09:38:35.858Z,14.57
2023-10-29T09:39:38.442Z,14.60
2023-10-29T09:40:41.839Z,14.51
2023-10-29T09:41:44.986Z,14.55
2023-10-29T09:42:55.396Z,14.58
2023-10-29T09:43:59.406Z,14.60
2023-10-29T09:45:04.421Z,14.60
2023-10-29T09:46:06.808Z,14.63
2023-10-29T09:47:13.815Z,14.63
2023-10-29T09:48:17.159Z,14.68
2023-10-29T09:49:21.058Z,14.74
2023-10-29T09:50:23.308Z,14.79
2023-10-29T09:51:26.460Z,14.80
2023-10-29T09:52:29.451Z,14.75
2023-10-29T09:53:33.860Z,14.77
2023-10-29T09:54:36.724Z,14.76
2023-10-29T09:55:40.425Z,14.80
2023-10-29T09:56:42.356Z,14.81
2023-10-29T09:57:45.778Z,14.83
2023-10-29T09:58:47.713Z,14.84
2023-10-29T09:59:50.620Z,14.84
2023-10-29T10:00:52.778Z,14.78
2023-10-29T10:01:59.027Z,14.81
2023-10-29T10:03:01.344Z,14.83
2023-10-29T10:04:04.350Z,14.80
2023-10-29T10:05:11.082Z,14.79
2023-10-29T10:06:18.598Z,14.81
2023-10-29T10:07:23.004Z,14.85
2023-10-29T10:08:25.833Z,14.89
2023-10-29T10:09:30.417Z,14.91
2023-10-29T10:10:38.909Z,14.84
2023-10-29T10:11:41.784Z,14.77
2023-10-29T10:12:47.468Z,14.66
2023-10-29T10:13:51.031Z,14.68
2023-10-29T10:14:53.695Z,14.68
2023-10-29T10:16:08.095Z,14.68
2023-10-29T10:17:11.072Z,14.70
2023-10-29T10:18:16.417Z,14.70
2023-10-29T10:19:18.450Z,14.69
2023-10-29T10:20:24.172Z,14.68
2023-10-29T10:21:41.372Z,14.61
2023-10-29T10:22:44.470Z,14.62
2023-10-29T10:23:49.678Z,14.63
2023-10-29T10:24:51.727Z,14.66
2023-10-29T10:26:00.824Z,14.73
2023-10-29T10:27:03.984Z,14.80
2023-10-29T10:28:07.860Z,14.78
2023-10-29T10:29:10.280Z,14.80
2023-10-29T10:30:25.674Z,14.76
2023-10-29T10:31:28.721Z,14.73
2023-10-29T10:32:32.125Z,14.68
2023-10-29T10:33:34.127Z,14.65
2023-10-29T10:34:38.888Z,14.66
2023-10-29T10:35:44.657Z,14.67
2023-10-29T10:36:50.141Z,14.61
2023-10-29T10:37:54.489Z,14.62
2023-10-29T10:38:57.244Z,14.66
2023-10-29T10:39:59.089Z,14.63
2023-10-29T10:41:01.876Z,14.63
2023-10-29T10:42:05.375Z,14.65
2023-10-29T10:43:09.028Z,14.66
2023-10-29T10:44:12.168Z,14.69
2023-10-29T10:45:17.077Z,14.71
2023-10-29T10:46:19.660Z,14.78
2023-10-29T10:47:23.227Z,14.76
2023-10-29T10:48:26.689Z,14.71
2023-10-29T10:49:32.889Z,14.71
2023-10-29T10:50:38.226Z,14.71
2023-10-29T10:51:42.276Z,14.74
2023-10-29T10:52:45.476Z,14.71
2023-10-29T10:53:47.683Z,14.64
2023-10-29T10:54:52.025Z,14.60
2023-10-29T10:56:02.358Z,14.53
2023-10-29T10:57:09.465Z,14.58
2023-10-29T10:58:13.925Z,14.52
2023-10-29T10:59:17.288Z,14.50
2023-10-29T11:00:20.633Z,14.49
2023-10-29T11:01:24.785Z,14.52
2023-10-29T11:02:26.728Z,14.50
2023-10-29T11:03:32.994Z,14.53
2023-10-29T11:04:36.659Z,14.52
2023-10-29T11:05:42.703Z,14.53
2023-10-29T11:06:46.636Z,14.40
2023-10-29T11:07:49.636Z,14.37
2023-10-29T11:08:51.821Z,14.37
2023-10-29T11:09:55.148Z,14.39
2023-10-29T11:10:59.204Z,14.40
2023-10-29T11:12:02.084Z,14.37
2023-10-29T11:13:18.605Z,14.34
2023-10-29T11:14:22.568Z,14.29
2023-10-29T11:15:24.847Z,14.26
2023-10-29T11:16:26.741Z,14.21
2023-10-29T11:17:51.992Z,14.16
2023-10-29T11:18:53.878Z,14.07
2023-10-29T11:19:59.023Z,13.99
2023-10-29T11:21:01.490Z,13.98
2023-10-29T11:22:16.718Z,13.97
2023-10-29T11:23:25.049Z,13.96
2023-10-29T11:24:26.907Z,13.97
2023-10-29T11:25:29.755Z,14.01
2023-10-29T11:26:32.609Z,13.99
2023-10-29T11:27:35.778Z,13.99
2023-10-29T11:28:46.024Z,13.99
2023-10-29T11:29:57.014Z,13.99
2023-10-29T11:31:12.747Z,14.00
2023-10-29T11:33:46.100Z,13.98
2023-10-29T11:34:57.565Z,13.95
2023-10-29T11:36:28.900Z,13.93
2023-10-29T11:37:38.987Z,13.95
2023-10-29T11:38:45.004Z,13.95
2023-10-29T11:39:47.324Z,13.95
2023-10-29T11:40:51.303Z,13.86
2023-10-29T11:41:55.714Z,13.82
2023-10-29T11:43:15.452Z,13.79
2023-10-29T11:44:29.223Z,13.68
2023-10-29T11:45:37.952Z,13.68
2023-10-29T11:47:03.594Z,13.66
2023-10-29T11:48:12.925Z,13.65
2023-10-29T11:49:26.861Z,13.65
2023-10-29T11:50:31.258Z,13.67
2023-10-29T11:51:34.281Z,13.68
2023-10-29T11:52:44.481Z,13.68
2023-10-29T11:53:55.161Z,13.71
2023-10-29T11:55:02.138Z,13.73
2023-10-29T11:56:07.199Z,13.74
2023-10-29T11:57:18.110Z,13.78
2023-10-29T11:58:23.705Z,13.79
2023-10-29T11:59:32.277Z,13.83
2023-10-29T12:00:39.539Z,13.84
2023-10-29T12:01:44.696Z,13.85
2023-10-29T12:02:50.748Z,13.85
2023-10-29T12:04:00.237Z,13.83
2023-10-29T12:05:11.391Z,13.84
2023-10-29T12:06:15.405Z,13.83
2023-10-29T12:07:28.973Z,13.77
2023-10-29T12:08:42.484Z,13.75
2023-10-29T12:09:46.016Z,13.75
2023-10-29T12:10:53.176Z,13.76
2023-10-29T12:11:57.496Z,13.79
2023-10-29T12:13:03.309Z,13.82
2023-10-29T12:14:10.337Z,13.81
2023-10-29T12:15:24.266Z,13.83
2023-10-29T12:16:29.282Z,13.82
2023-10-29T12:17:32.900Z,13.78
2023-10-29T12:18:36.115Z,13.72
2023-10-29T12:19:44.906Z,13.68
2023-10-29T12:20:50.206Z,13.71
2023-10-29T12:22:02.721Z,13.71
2023-10-29T12:23:07.083Z,13.73
2023-10-29T12:24:16.922Z,13.73
2023-10-29T12:25:21.138Z,13.72
2023-10-29T12:26:26.896Z,13.65
2023-10-29T12:27:33.442Z,13.66
2023-10-29T12:28:40.296Z,13.64
2023-10-29T12:29:44.461Z,13.62
2023-10-29T12:30:51.602Z,13.60
2023-10-29T12:31:56.663Z,13.57
2023-10-29T12:33:19.607Z,13.56
2023-10-29T12:34:26.176Z,13.56
2023-10-29T12:35:35.940Z,13.57
2023-10-29T12:36:41.245Z,13.55
2023-10-29T12:37:53.146Z,13.55
2023-10-29T12:38:57.545Z,13.54
2023-10-29T12:40:02.414Z,13.52
2023-10-29T12:41:08.260Z,13.53
2023-10-29T12:42:12.513Z,13.52
2023-10-29T12:43:15.138Z,13.54
2023-10-29T12:44:19.764Z,13.53
2023-10-29T12:45:26.691Z,13.46
2023-10-29T12:46:38.575Z,13.45
2023-10-29T12:47:43.365Z,13.43
2023-10-29T12:49:00.730Z,13.46
2023-10-29T12:50:05.438Z,13.36
2023-10-29T12:51:09.618Z,13.38
2023-10-29T12:52:13.804Z,13.37
2023-10-29T12:53:25.805Z,13.35
2023-10-29T12:54:32.001Z,13.30
2023-10-29T12:55:57.582Z,13.33
2023-10-29T12:57:03.405Z,13.39
2023-10-29T12:58:06.827Z,13.38
2023-10-29T12:59:13.291Z,13.37
2023-10-29T13:00:19.158Z,13.36
2023-10-29T13:01:21.030Z,13.34
2023-10-29T13:02:27.355Z,13.36
2023-10-29T13:03:30.302Z,13.38
2023-10-29T13:04:38.086Z,13.43
2023-10-29T13:05:42.639Z,13.41
2023-10-29T13:06:49.289Z,13.41
2023-10-29T13:08:00.207Z,13.43
2023-10-29T13:09:09.072Z,13.44
2023-10-29T13:10:14.210Z,13.46
2023-10-29T13:11:31.133Z,13.47
2023-10-29T13:12:34.770Z,13.46
2023-10-29T13:13:39.512Z,13.47
2023-10-29T13:14:47.590Z,13.48
2023-10-29T13:15:58.545Z,13.49
2023-10-29T13:17:02.460Z,13.50
2023-10-29T13:18:07.479Z,13.51
2023-10-29T13:19:12.799Z,13.49
2023-10-29T13:20:17.165Z,13.48
2023-10-29T13:21:27.473Z,13.47
2023-10-29T13:23:48.571Z,13.48
2023-10-29T13:24:59.766Z,13.47
2023-10-29T13:26:05.296Z,13.46
2023-10-29T13:27:12.776Z,13.47
2023-10-29T13:28:15.825Z,13.48
2023-10-29T13:29:24.137Z,13.50
2023-10-29T13:30:29.341Z,13.49
2023-10-29T13:31:40.724Z,13.50
2023-10-29T13:32:45.565Z,13.52
2023-10-29T13:33:48.996Z,13.53
2023-10-29T13:34:55.251Z,13.53
2023-10-29T13:35:59.801Z,13.49
2023-10-29T13:37:05.610Z,13.51
2023-10-29T13:38:10.788Z,13.46
2023-10-29T13:39:19.662Z,13.46
2023-10-29T13:40:27.710Z,13.49
2023-10-29T13:41:30.985Z,13.49
2023-10-29T13:42:39.931Z,13.50
2023-10-29T13:43:43.515Z,13.47
2023-10-29T13:44:47.599Z,13.45
2023-10-29T13:45:58.598Z,13.46
2023-10-29T13:47:03.873Z,13.47
2023-10-29T13:48:09.588Z,13.41
2023-10-29T13:49:18.719Z,13.40
2023-10-29T13:50:21.622Z,13.40
2023-10-29T13:51:26.270Z,13.42
2023-10-29T13:52:31.554Z,13.40
2023-10-29T13:53:36.796Z,13.42
2023-10-29T13:54:51.431Z,13.45
2023-10-29T13:55:55.826Z,13.43
2023-10-29T13:56:59.093Z,13.43
2023-10-29T13:58:04.062Z,13.43
2023-10-29T13:59:10.374Z,13.42
2023-10-29T14:00:14.526Z,13.42
2023-10-29T14:01:25.626Z,13.42
2023-10-29T14:02:35.274Z,13.40
2023-10-29T14:03:41.326Z,13.41
2023-10-29T14:04:43.944Z,13.41
2023-10-29T14:05:50.863Z,13.39
2023-10-29T14:06:54.809Z,13.37
2023-10-29T14:08:00.586Z,13.35
2023-10-29T14:09:03.560Z,13.32
2023-10-29T14:10:13.787Z,13.35
2023-10-29T14:11:18.207Z,13.38
2023-10-29T14:12:24.171Z,13.39
2023-10-29T14:13:27.717Z,13.36
2023-10-29T14:14:35.523Z,13.39
2023-10-29T14:15:39.471Z,13.41
2023-10-29T14:16:44.918Z,13.42
2023-10-29T14:17:47.703Z,13.38
2023-10-29T14:18:49.789Z,13.35
2023-10-29T14:19:52.907Z,13.37
2023-10-29T14:20:55.682Z,13.40
2023-10-29T14:22:00.071Z,13.41
2023-10-29T14:23:09.812Z,13.39
2023-10-29T14:24:14.284Z,13.39
2023-10-29T14:25:18.798Z,13.38
2023-10-29T14:26:23.569Z,13.36
2023-10-29T14:27:28.525Z,13.34
2023-10-29T14:28:33.862Z,13.32
2023-10-29T14:29:40.479Z,13.31
2023-10-29T14:30:44.121Z,13.32
2023-10-29T14:31:52.082Z,13.29
2023-10-29T14:32:56.994Z,13.25
2023-10-29T14:34:02.769Z,13.24
2023-10-29T14:35:07.811Z,13.28
2023-10-29T14:36:11.079Z,13.32
2023-10-29T14:37:14.592Z,13.33
2023-10-29T14:38:23.871Z,13.35
2023-10-29T14:39:37.884Z,13.30
2023-10-29T14:40:48.287Z,13.24
2023-10-29T14:42:00.537Z,13.24
2023-10-29T14:43:20.844Z,13.24
2023-10-29T14:44:29.266Z,13.23
2023-10-29T14:45:35.324Z,13.29
2023-10-29T14:46:39.443Z,13.31
2023-10-29T14:47:43.897Z,13.28
2023-10-29T14:48:51.179Z,13.22
2023-10-29T14:49:55.152Z,13.16
2023-10-29T14:51:05.299Z,13.11
2023-10-29T14:52:16.136Z,13.10
2023-10-29T14:53:23.091Z,13.07
2023-10-29T14:54:25.444Z,13.02
2023-10-29T14:55:34.079Z,12.98
2023-10-29T14:56:38.101Z,12.97
2023-10-29T14:57:43.863Z,12.97
2023-10-29T14:58:52.542Z,13.02
2023-10-29T15:00:10.722Z,12.99
2023-10-29T15:01:16.223Z,13.01
2023-10-29T15:02:20.849Z,12.99
2023-10-29T15:03:25.170Z,12.99
2023-10-29T15:04:38.044Z,13.00
2023-10-29T15:05:41.869Z,12.98
2023-10-29T15:06:46.556Z,12.98
2023-10-29T15:07:49.774Z,13.00
2023-10-29T15:08:54.334Z,13.02
2023-10-29T15:09:59.458Z,13.03
2023-10-29T15:11:33.737Z,13.07
2023-10-29T15:12:40.280Z,13.11
2023-10-29T15:13:45.797Z,13.12
2023-10-29T15:14:51.092Z,13.09
2023-10-29T15:15:57.567Z,13.10
2023-10-29T15:16:59.698Z,13.11
2023-10-29T15:18:04.052Z,13.09
2023-10-29T15:19:09.189Z,13.08
2023-10-29T15:20:17.990Z,13.05
2023-10-29T15:21:24.507Z,12.99
2023-10-29T15:22:28.700Z,12.96
2023-10-29T15:23:32.119Z,12.92
2023-10-29T15:24:38.318Z,12.90
2023-10-29T15:25:44.658Z,12.91
2023-10-29T15:26:48.023Z,12.95
2023-10-29T15:27:54.472Z,12.95
2023-10-29T15:28:57.971Z,12.93
2023-10-29T15:30:08.121Z,12.93
2023-10-29T15:31:14.366Z,12.89
2023-10-29T15:32:18.116Z,12.88
2023-10-29T15:33:27.940Z,12.89
2023-10-29T15:34:39.761Z,12.90
2023-10-29T15:35:44.478Z,12.94
2023-10-29T15:36:52.835Z,12.99
2023-10-29T15:38:04.386Z,12.98
2023-10-29T15:39:33.238Z,12.93
2023-10-29T15:40:35.456Z,12.89
2023-10-29T15:41:39.181Z,12.88
2023-10-29T15:42:41.066Z,12.85
2023-10-29T15:43:43.974Z,12.84
2023-10-29T15:44:45.980Z,12.83
2023-10-29T15:45:49.100Z,12.84
2023-10-29T15:46:54.912Z,12.82
2023-10-29T15:47:56.962Z,12.77
2023-10-29T15:49:00.140Z,12.78
2023-10-29T15:50:04.210Z,12.82
2023-10-29T15:51:09.597Z,12.81
2023-10-29T15:52:13.092Z,12.77
2023-10-29T15:53:16.027Z,12.82
2023-10-29T15:54:18.054Z,12.88
2023-10-29T15:55:21.131Z,12.92
2023-10-29T15:56:23.193Z,12.95
2023-10-29T15:57:26.156Z,12.94
2023-10-29T15:58:28.106Z,12.90
2023-10-29T15:59:31.048Z,12.88
2023-10-29T16:00:36.990Z,12.88
2023-10-29T16:01:40.316Z,12.89
2023-10-29T16:02:43.795Z,12.88
2023-10-29T16:03:47.184Z,12.88
2023-10-29T16:04:49.357Z,12.90
2023-10-29T16:05:52.501Z,12.87
2023-10-29T16:06:55.000Z,12.84
2023-10-29T16:07:59.430Z,12.83
2023-10-29T16:09:03.797Z,12.84
2023-10-29T16:10:08.643Z,12.84
2023-10-29T16:11:22.859Z,12.76
2023-10-29T16:12:25.576Z,12.70
2023-10-29T16:13:29.108Z,12.73
2023-10-29T16:14:33.767Z,12.77
2023-10-29T16:15:37.323Z,12.80
2023-10-29T16:16:40.185Z,12.73
2023-10-29T16:17:45.234Z,12.69
2023-10-29T16:18:47.648Z,12.67
2023-10-29T16:19:51.226Z,12.69
2023-10-29T16:20:53.810Z,12.66
2023-10-29T16:21:57.389Z,12.69
2023-10-29T16:22:59.942Z,12.67
2023-10-29T16:24:04.462Z,12.65
2023-10-29T16:25:07.940Z,12.62
2023-10-29T16:26:12.870Z,12.59
2023-10-29T16:27:14.971Z,12.57
2023-10-29T16:28:18.124Z,12.58
2023-10-29T16:29:20.200Z,12.57
2023-10-29T16:30:26.387Z,12.59
2023-10-29T16:31:29.528Z,12.60
2023-10-29T16:32:31.539Z,12.63
2023-10-29T16:33:36.222Z,12.67
2023-10-29T16:34:38.849Z,12.68
2023-10-29T16:35:42.065Z,12.70
2023-10-29T16:36:43.994Z,12.67
2023-10-29T16:37:46.996Z,12.64
2023-10-29T16:38:49.065Z,12.62
2023-10-29T16:39:52.040Z,12.66
2023-10-29T16:40:55.110Z,12.66
2023-10-29T16:42:00.871Z,12.65
2023-10-29T16:43:02.883Z,12.65
2023-10-29T16:44:06.792Z,12.67
2023-10-29T16:45:09.822Z,12.69
2023-10-29T16:46:13.050Z,12.73
2023-10-29T16:47:15.089Z,12.76
2023-10-29T16:48:18.085Z,12.77
2023-10-29T16:49:21.393Z,12.79
2023-10-29T16:50:24.326Z,12.77
2023-10-29T16:51:26.295Z,12.77
2023-10-29T16:52:29.459Z,12.76
2023-10-29T16:53:31.408Z,12.72
2023-10-29T16:54:34.653Z,12.70
2023-10-29T16:55:37.130Z,12.64
2023-10-29T16:56:40.460Z,12.66
2023-10-29T16:57:42.494Z,12.70
2023-10-29T16:58:45.441Z,12.66
2023-10-29T16:59:47.625Z,12.65
2023-10-29T17:00:50.749Z,12.64
2023-10-29T17:01:54.686Z,12.65
2023-10-29T17:02:58.138Z,12.68
2023-10-29T17:04:00.445Z,12.70
2023-10-29T17:05:05.085Z,12.70
2023-10-29T17:06:08.235Z,12.69
2023-10-29T17:07:12.068Z,12.65
2023-10-29T17:08:17.859Z,12.65
2023-10-29T17:09:21.211Z,12.64
2023-10-29T17:10:23.446Z,12.63
2023-10-29T17:11:26.490Z,12.59
2023-10-29T17:12:28.572Z,12.60
2023-10-29T17:13:31.697Z,12.61
2023-10-29T17:14:33.840Z,12.60
2023-10-29T17:15:36.994Z,12.59
2023-10-29T17:16:39.107Z,12.59
2023-10-29T17:17:42.375Z,12.60
2023-10-29T17:18:44.685Z,12.57
2023-10-29T17:19:47.953Z,12.57
2023-10-29T17:20:54.446Z,12.53
2023-10-29T17:21:57.543Z,12.57
2023-10-29T17:22:59.578Z,12.55
2023-10-29T17:24:01.891Z,12.57
2023-10-29T17:25:05.334Z,12.55
2023-10-29T17:26:13.712Z,12.53
2023-10-29T17:28:07.610Z,12.54
2023-10-29T17:29:10.217Z,12.54
2023-10-29T17:30:14.607Z,12.52
2023-10-29T17:31:19.886Z,12.51
2023-10-29T17:32:23.614Z,12.51
2023-10-29T17:33:25.640Z,12.48
2023-10-29T17:34:28.689Z,12.48
2023-10-29T17:35:31.057Z,12.46
2023-10-29T17:36:34.423Z,12.48
2023-10-29T17:37:37.493Z,12.47
2023-10-29T17:38:40.121Z,12.41
2023-10-29T17:39:43.068Z,12.39
2023-10-29T17:40:45.034Z,12.37
2023-10-29T17:41:48.148Z,12.30
2023-10-29T17:42:51.129Z,12.28
2023-10-29T17:43:54.183Z,12.30
2023-10-29T17:44:56.190Z,12.32
2023-10-29T17:45:59.385Z,12.29
2023-10-29T17:47:01.451Z,12.28
2023-10-29T17:48:05.627Z,12.31
2023-10-29T17:49:07.730Z,12.32
2023-10-29T17:50:10.202Z,12.33
2023-10-29T17:51:13.234Z,12.33
2023-10-29T17:52:16.636Z,12.32
2023-10-29T17:53:19.567Z,12.34
2023-10-29T17:54:21.638Z,12.36
2023-10-29T17:55:24.799Z,12.39
2023-10-29T17:56:27.749Z,12.35
2023-10-29T17:57:30.802Z,12.35
2023-10-29T17:58:33.754Z,12.38
2023-10-29T17:59:38.254Z,12.38
2023-10-29T18:00:42.000Z,12.34
2023-10-29T18:01:45.101Z,12.33
2023-10-29T18:02:47.242Z,12.33
2023-10-29T18:03:55.235Z,12.29
2023-10-29T18:04:57.590Z,12.28
2023-10-29T18:06:00.742Z,12.29
2023-10-29T18:07:02.936Z,12.30
2023-10-29T18:08:09.541Z,12.30
2023-10-29T18:09:11.634Z,12.26
2023-10-29T18:10:14.883Z,12.26
2023-10-29T18:11:19.126Z,12.25
2023-10-29T18:12:22.504Z,12.22
2023-10-29T18:13:24.600Z,12.25
2023-10-29T18:14:27.757Z,12.25
2023-10-29T18:15:29.924Z,12.20
2023-10-29T18:16:33.046Z,12.18
2023-10-29T18:17:35.159Z,12.16
2023-10-29T18:18:37.400Z,12.18
2023-10-29T18:19:40.674Z,12.14
2023-10-29T18:20:46.107Z,12.18
2023-10-29T18:21:49.219Z,12.14
2023-10-29T18:22:51.462Z,12.10
2023-10-29T18:23:56.006Z,12.06
2023-10-29T18:24:58.275Z,12.08
2023-10-29T18:26:01.446Z,12.05
2023-10-29T18:27:04.970Z,12.08
2023-10-29T18:28:07.185Z,12.07
2023-10-29T18:29:10.312Z,12.07
2023-10-29T18:30:14.187Z,12.10
2023-10-29T18:31:17.491Z,12.08
2023-10-29T18:32:19.604Z,12.08
2023-10-29T18:33:22.866Z,12.00
2023-10-29T18:34:26.665Z,12.04
2023-10-29T18:35:31.730Z,12.04
2023-10-29T18:36:33.891Z,12.08
2023-10-29T18:37:36.989Z,12.08
2023-10-29T18:38:39.230Z,12.07
2023-10-29T18:39:43.733Z,12.08
2023-10-29T18:40:45.819Z,12.10
2023-10-29T18:41:48.951Z,12.12
2023-10-29T18:42:51.139Z,12.16
2023-10-29T18:43:55.933Z,12.13
2023-10-29T18:44:58.008Z,12.13
2023-10-29T18:46:01.169Z,12.12
2023-10-29T18:47:03.463Z,12.10
2023-10-29T18:48:07.031Z,12.08
2023-10-29T18:49:09.165Z,12.10
2023-10-29T18:50:12.442Z,12.15
2023-10-29T18:51:16.398Z,12.17
2023-10-29T18:52:19.785Z,12.16
2023-10-29T18:53:21.883Z,12.16
2023-10-29T18:54:25.612Z,12.16
2023-10-29T18:55:29.200Z,12.13
2023-10-29T18:56:32.358Z,12.17
2023-10-29T18:57:34.515Z,12.19
2023-10-29T18:58:39.148Z,12.20
2023-10-29T18:59:41.278Z,12.16
2023-10-29T19:00:44.377Z,12.18
2023-10-29T19:01:46.612Z,12.19
2023-10-29T19:02:49.806Z,12.21
2023-10-29T19:03:52.021Z,12.20
2023-10-29T19:04:55.212Z,12.22
2023-10-29T19:05:57.343Z,12.26
2023-10-29T19:07:00.488Z,12.24
2023-10-29T19:08:04.707Z,12.21
2023-10-29T19:09:07.892Z,12.19
2023-10-29T19:10:10.219Z,12.23
2023-10-29T19:11:16.861Z,12.23
2023-10-29T19:12:19.014Z,12.23
2023-10-29T19:13:22.140Z,12.24
2023-10-29T19:14:24.700Z,12.25
2023-10-29T19:15:27.893Z,12.21
2023-10-29T19:16:30.529Z,12.18
2023-10-29T19:17:35.175Z,12.20
2023-10-29T19:18:40.499Z,12.23
2023-10-29T19:19:43.689Z,12.27
2023-10-29T19:20:45.762Z,12.23
2023-10-29T19:21:48.844Z,12.25
2023-10-29T19:22:50.924Z,12.28
2023-10-29T19:23:54.222Z,12.30
2023-10-29T19:24:56.510Z,12.33
2023-10-29T19:26:03.183Z,12.33
2023-10-29T19:27:06.723Z,12.34
2023-10-29T19:28:09.874Z,12.28
2023-10-29T19:29:12.074Z,12.26
2023-10-29T19:30:15.449Z,12.26
2023-10-29T19:31:25.476Z,12.28